sensor_id;sensor_type;location;lat;lon;timestamp;temperature;humidity
71304;DHT22;59091;47.446;19.148;2023-05-10T00:00:28;13.75;63.37
71304;DHT22;59091;47.446;19.148;2023-05-10T00:02:53;13.68;63.77
71304;DHT22;59091;47.446;19.148;2023-05-10T00:05:19;13.67;63.80
71304;DHT22;59091;47.446;19.148;2023-05-10T00:07:44;13.62;64.19
71304;DHT22;59091;47.446;19.148;2023-05-10T00:10:10;13.60;64.03
71304;DHT22;59091;47.446;19.148;2023-05-10T00:12:36;13.54;64.57
71304;DHT22;59091;47.446;19.148;2023-05-10T00:15:02;13.57;64.17
71304;DHT22;59091;47.446;19.148;2023-05-10T00:17:28;13.62;64.12
71304;DHT22;59091;47.446;19.148;2023-05-10T00:19:53;13.55;64.61
71304;DHT22;59091;47.446;19.148;2023-05-10T00:22:19;13.54;64.58
71304;DHT22;59091;47.446;19.148;2023-05-10T00:24:45;13.53;64.76
71304;DHT22;59091;47.446;19.148;2023-05-10T00:27:10;13.48;64.94
71304;DHT22;59091;47.446;19.148;2023-05-10T00:29:36;13.44;65.08
71304;DHT22;59091;47.446;19.148;2023-05-10T00:32:01;13.48;64.89
71304;DHT22;59091;47.446;19.148;2023-05-10T00:34:26;13.47;64.88
71304;DHT22;59091;47.446;19.148;2023-05-10T00:36:52;13.46;64.81
71304;DHT22;59091;47.446;19.148;2023-05-10T00:39:17;13.43;65.25
71304;DHT22;59091;47.446;19.148;2023-05-10T00:41:43;13.41;65.14
71304;DHT22;59091;47.446;19.148;2023-05-10T00:44:08;13.31;65.50
71304;DHT22;59091;47.446;19.148;2023-05-10T00:46:34;13.28;65.53
71304;DHT22;59091;47.446;19.148;2023-05-10T00:49:00;13.30;65.64
71304;DHT22;59091;47.446;19.148;2023-05-10T00:51:25;13.24;65.85
71304;DHT22;59091;47.446;19.148;2023-05-10T00:53:51;13.27;65.65
71304;DHT22;59091;47.446;19.148;2023-05-10T00:56:17;13.23;65.85
71304;DHT22;59091;47.446;19.148;2023-05-10T00:58:42;13.16;66.27
71304;DHT22;59091;47.446;19.148;2023-05-10T01:01:08;13.21;66.01
71304;DHT22;59091;47.446;19.148;2023-05-10T01:03:35;13.07;66.63
71304;DHT22;59091;47.446;19.148;2023-05-10T01:06:01;13.14;66.58
71304;DHT22;59091;47.446;19.148;2023-05-10T01:08:26;13.07;66.90
71304;DHT22;59091;47.446;19.148;2023-05-10T01:10:53;13.07;66.74
71304;DHT22;59091;47.446;19.148;2023-05-10T01:13:34;13.16;66.26
71304;DHT22;59091;47.446;19.148;2023-05-10T01:16:01;13.04;67.06
71304;DHT22;59091;47.446;19.148;2023-05-10T01:18:31;13.07;66.97
71304;DHT22;59091;47.446;19.148;2023-05-10T01:21:33;13.02;67.18
71304;DHT22;59091;47.446;19.148;2023-05-10T01:35:40;13.03;67.15
71304;DHT22;59091;47.446;19.148;2023-05-10T01:38:20;13.16;66.97
71304;DHT22;59091;47.446;19.148;2023-05-10T01:40:54;13.20;66.86
71304;DHT22;59091;47.446;19.148;2023-05-10T01:43:26;13.20;66.70
71304;DHT22;59091;47.446;19.148;2023-05-10T01:46:03;13.13;67.10
71304;DHT22;59091;47.446;19.148;2023-05-10T01:48:38;13.02;67.40
71304;DHT22;59091;47.446;19.148;2023-05-10T01:51:06;13.24;66.99
71304;DHT22;59091;47.446;19.148;2023-05-10T01:53:35;13.28;67.17
71304;DHT22;59091;47.446;19.148;2023-05-10T01:56:03;13.37;66.69
71304;DHT22;59091;47.446;19.148;2023-05-10T01:58:31;13.48;66.15
71304;DHT22;59091;47.446;19.148;2023-05-10T02:01:00;13.51;65.99
71304;DHT22;59091;47.446;19.148;2023-05-10T02:03:28;13.48;66.23
71304;DHT22;59091;47.446;19.148;2023-05-10T02:05:54;13.47;66.07
71304;DHT22;59091;47.446;19.148;2023-05-10T02:08:22;13.53;65.77
71304;DHT22;59091;47.446;19.148;2023-05-10T02:10:49;13.57;65.75
71304;DHT22;59091;47.446;19.148;2023-05-10T02:13:17;13.55;66.20
71304;DHT22;59091;47.446;19.148;2023-05-10T02:15:43;13.43;66.45
71304;DHT22;59091;47.446;19.148;2023-05-10T02:18:13;13.51;65.73
71304;DHT22;59091;47.446;19.148;2023-05-10T02:20:39;13.48;65.89
71304;DHT22;59091;47.446;19.148;2023-05-10T02:23:06;13.51;65.63
71304;DHT22;59091;47.446;19.148;2023-05-10T02:25:32;13.51;65.43
71304;DHT22;59091;47.446;19.148;2023-05-10T02:28:00;13.19;65.86
71304;DHT22;59091;47.446;19.148;2023-05-10T02:30:26;13.26;65.84
71304;DHT22;59091;47.446;19.148;2023-05-10T02:32:53;13.31;65.30
71304;DHT22;59091;47.446;19.148;2023-05-10T02:35:19;13.37;64.79
71304;DHT22;59091;47.446;19.148;2023-05-10T02:37:46;13.47;64.46
71304;DHT22;59091;47.446;19.148;2023-05-10T02:40:13;13.46;64.43
71304;DHT22;59091;47.446;19.148;2023-05-10T02:42:42;13.46;64.33
71304;DHT22;59091;47.446;19.148;2023-05-10T02:45:15;13.41;64.56
71304;DHT22;59091;47.446;19.148;2023-05-10T02:47:42;13.31;64.69
71304;DHT22;59091;47.446;19.148;2023-05-10T02:50:09;13.43;64.33
71304;DHT22;59091;47.446;19.148;2023-05-10T02:52:46;13.30;64.41
71304;DHT22;59091;47.446;19.148;2023-05-10T02:55:15;13.39;63.97
71304;DHT22;59091;47.446;19.148;2023-05-10T02:58:01;13.19;64.40
71304;DHT22;59091;47.446;19.148;2023-05-10T03:00:27;13.31;64.39
71304;DHT22;59091;47.446;19.148;2023-05-10T03:02:53;13.40;64.61
71304;DHT22;59091;47.446;19.148;2023-05-10T03:05:19;13.36;64.35
71304;DHT22;59091;47.446;19.148;2023-05-10T03:07:45;13.36;64.40
71304;DHT22;59091;47.446;19.148;2023-05-10T03:10:11;13.36;64.13
71304;DHT22;59091;47.446;19.148;2023-05-10T03:15:47;13.20;64.24
71304;DHT22;59091;47.446;19.148;2023-05-10T03:18:22;13.26;64.29
71304;DHT22;59091;47.446;19.148;2023-05-10T03:20:57;13.24;64.22
71304;DHT22;59091;47.446;19.148;2023-05-10T03:23:31;13.20;64.12
71304;DHT22;59091;47.446;19.148;2023-05-10T03:25:59;13.21;64.55
71304;DHT22;59091;47.446;19.148;2023-05-10T03:28:25;13.20;64.08
71304;DHT22;59091;47.446;19.148;2023-05-10T03:30:53;13.13;64.76
71304;DHT22;59091;47.446;19.148;2023-05-10T03:33:19;12.99;65.00
71304;DHT22;59091;47.446;19.148;2023-05-10T03:35:45;13.06;64.45
71304;DHT22;59091;47.446;19.148;2023-05-10T03:38:11;13.10;64.49
71304;DHT22;59091;47.446;19.148;2023-05-10T03:40:37;13.14;64.34
71304;DHT22;59091;47.446;19.148;2023-05-10T03:43:03;13.14;64.37
71304;DHT22;59091;47.446;19.148;2023-05-10T03:45:28;13.21;64.03
71304;DHT22;59091;47.446;19.148;2023-05-10T03:47:53;13.19;64.39
71304;DHT22;59091;47.446;19.148;2023-05-10T03:50:19;13.14;64.72
71304;DHT22;59091;47.446;19.148;2023-05-10T03:52:45;13.16;64.58
71304;DHT22;59091;47.446;19.148;2023-05-10T03:55:10;13.21;64.55
71304;DHT22;59091;47.446;19.148;2023-05-10T03:57:36;13.30;64.44
71304;DHT22;59091;47.446;19.148;2023-05-10T04:00:02;13.39;64.12
71304;DHT22;59091;47.446;19.148;2023-05-10T04:02:28;13.46;64.17
71304;DHT22;59091;47.446;19.148;2023-05-10T04:04:55;13.46;64.19
71304;DHT22;59091;47.446;19.148;2023-05-10T04:07:20;13.55;64.16
71304;DHT22;59091;47.446;19.148;2023-05-10T04:09:46;13.64;63.26
71304;DHT22;59091;47.446;19.148;2023-05-10T04:12:12;13.71;63.31
71304;DHT22;59091;47.446;19.148;2023-05-10T04:14:37;13.67;63.19
71304;DHT22;59091;47.446;19.148;2023-05-10T04:17:03;13.71;63.25
71304;DHT22;59091;47.446;19.148;2023-05-10T04:19:32;13.72;63.02
71304;DHT22;59091;47.446;19.148;2023-05-10T04:21:58;13.57;63.48
71304;DHT22;59091;47.446;19.148;2023-05-10T04:24:23;13.55;63.52
71304;DHT22;59091;47.446;19.148;2023-05-10T04:26:49;13.60;62.90
71304;DHT22;59091;47.446;19.148;2023-05-10T04:29:14;13.60;63.08
71304;DHT22;59091;47.446;19.148;2023-05-10T04:31:39;13.64;63.27
71304;DHT22;59091;47.446;19.148;2023-05-10T04:34:05;13.67;63.03
71304;DHT22;59091;47.446;19.148;2023-05-10T04:36:30;13.64;63.06
71304;DHT22;59091;47.446;19.148;2023-05-10T04:38:57;13.55;63.15
71304;DHT22;59091;47.446;19.148;2023-05-10T04:41:23;13.43;63.22
71304;DHT22;59091;47.446;19.148;2023-05-10T04:43:50;13.33;64.17
71304;DHT22;59091;47.446;19.148;2023-05-10T04:46:15;13.58;66.66
71304;DHT22;59091;47.446;19.148;2023-05-10T04:48:41;13.48;63.43
71304;DHT22;59091;47.446;19.148;2023-05-10T04:51:06;13.39;64.10
71304;DHT22;59091;47.446;19.148;2023-05-10T04:53:32;13.39;64.06
71304;DHT22;59091;47.446;19.148;2023-05-10T04:55:57;13.51;63.67
71304;DHT22;59091;47.446;19.148;2023-05-10T04:58:23;13.61;63.28
71304;DHT22;59091;47.446;19.148;2023-05-10T05:00:48;13.68;64.20
71304;DHT22;59091;47.446;19.148;2023-05-10T05:03:13;13.74;63.26
71304;DHT22;59091;47.446;19.148;2023-05-10T05:05:39;13.72;62.79
71304;DHT22;59091;47.446;19.148;2023-05-10T05:08:04;13.81;65.97
71304;DHT22;59091;47.446;19.148;2023-05-10T05:10:30;13.83;63.57
71304;DHT22;59091;47.446;19.148;2023-05-10T05:12:55;13.60;63.07
71304;DHT22;59091;47.446;19.148;2023-05-10T05:15:21;13.77;63.88
71304;DHT22;59091;47.446;19.148;2023-05-10T05:17:46;14.05;63.69
71304;DHT22;59091;47.446;19.148;2023-05-10T05:20:12;14.02;63.29
71304;DHT22;59091;47.446;19.148;2023-05-10T05:22:38;14.21;62.24
71304;DHT22;59091;47.446;19.148;2023-05-10T05:25:04;14.18;62.16
71304;DHT22;59091;47.446;19.148;2023-05-10T05:27:31;14.19;61.77
71304;DHT22;59091;47.446;19.148;2023-05-10T05:29:57;14.42;61.80
71304;DHT22;59091;47.446;19.148;2023-05-10T05:32:23;14.46;62.22
71304;DHT22;59091;47.446;19.148;2023-05-10T05:34:48;14.43;63.12
71304;DHT22;59091;47.446;19.148;2023-05-10T05:37:20;14.60;61.94
71304;DHT22;59091;47.446;19.148;2023-05-10T05:39:46;14.64;62.59
71304;DHT22;59091;47.446;19.148;2023-05-10T05:42:13;14.98;64.64
71304;DHT22;59091;47.446;19.148;2023-05-10T05:44:39;15.08;60.67
71304;DHT22;59091;47.446;19.148;2023-05-10T05:47:05;15.17;60.08
71304;DHT22;59091;47.446;19.148;2023-05-10T05:49:31;15.31;60.72
71304;DHT22;59091;47.446;19.148;2023-05-10T05:52:00;15.35;59.96
71304;DHT22;59091;47.446;19.148;2023-05-10T05:54:26;15.53;60.22
71304;DHT22;59091;47.446;19.148;2023-05-10T05:56:54;15.59;59.15
71304;DHT22;59091;47.446;19.148;2023-05-10T05:59:20;15.51;59.55
71304;DHT22;59091;47.446;19.148;2023-05-10T06:01:46;15.75;66.79
71304;DHT22;59091;47.446;19.148;2023-05-10T06:04:11;16.41;67.23
71304;DHT22;59091;47.446;19.148;2023-05-10T06:06:37;17.08;64.66
71304;DHT22;59091;47.446;19.148;2023-05-10T06:09:03;16.79;57.36
71304;DHT22;59091;47.446;19.148;2023-05-10T06:11:28;16.78;56.32
71304;DHT22;59091;47.446;19.148;2023-05-10T06:13:54;16.94;55.96
71304;DHT22;59091;47.446;19.148;2023-05-10T06:16:37;16.99;56.36
71304;DHT22;59091;47.446;19.148;2023-05-10T06:19:04;17.15;56.88
71304;DHT22;59091;47.446;19.148;2023-05-10T06:21:29;17.18;56.07
71304;DHT22;59091;47.446;19.148;2023-05-10T06:23:55;16.88;55.05
71304;DHT22;59091;47.446;19.148;2023-05-10T06:26:20;17.01;57.09
71304;DHT22;59091;47.446;19.148;2023-05-10T06:28:46;17.53;60.57
71304;DHT22;59091;47.446;19.148;2023-05-10T06:31:11;17.59;56.64
71304;DHT22;59091;47.446;19.148;2023-05-10T06:33:37;17.74;59.22
71304;DHT22;59091;47.446;19.148;2023-05-10T06:36:03;17.51;56.22
71304;DHT22;59091;47.446;19.148;2023-05-10T06:38:29;17.18;54.90
71304;DHT22;59091;47.446;19.148;2023-05-10T06:40:54;17.45;54.76
71304;DHT22;59091;47.446;19.148;2023-05-10T06:43:20;17.60;55.24
71304;DHT22;59091;47.446;19.148;2023-05-10T06:45:45;17.76;54.99
71304;DHT22;59091;47.446;19.148;2023-05-10T06:48:11;17.69;54.47
71304;DHT22;59091;47.446;19.148;2023-05-10T06:50:36;17.88;53.67
71304;DHT22;59091;47.446;19.148;2023-05-10T06:53:02;18.45;54.29
71304;DHT22;59091;47.446;19.148;2023-05-10T06:55:27;18.51;52.15
71304;DHT22;59091;47.446;19.148;2023-05-10T06:57:53;18.97;53.22
71304;DHT22;59091;47.446;19.148;2023-05-10T07:00:19;18.68;50.48
71304;DHT22;59091;47.446;19.148;2023-05-10T07:02:45;18.58;50.32
71304;DHT22;59091;47.446;19.148;2023-05-10T07:05:10;18.89;51.22
71304;DHT22;59091;47.446;19.148;2023-05-10T07:07:36;18.82;58.03
71304;DHT22;59091;47.446;19.148;2023-05-10T07:10:02;18.65;50.56
71304;DHT22;59091;47.446;19.148;2023-05-10T07:12:27;19.27;50.84
71304;DHT22;59091;47.446;19.148;2023-05-10T07:14:53;19.57;49.37
71304;DHT22;59091;47.446;19.148;2023-05-10T07:17:18;19.35;48.20
71304;DHT22;59091;47.446;19.148;2023-05-10T07:19:44;19.27;47.74
71304;DHT22;59091;47.446;19.148;2023-05-10T07:22:09;19.27;47.47
71304;DHT22;59091;47.446;19.148;2023-05-10T07:24:35;19.20;48.55
71304;DHT22;59091;47.446;19.148;2023-05-10T07:27:00;19.72;49.54
71304;DHT22;59091;47.446;19.148;2023-05-10T07:29:26;19.77;48.75
71304;DHT22;59091;47.446;19.148;2023-05-10T07:31:51;19.86;46.79
71304;DHT22;59091;47.446;19.148;2023-05-10T07:34:17;20.19;45.42
71304;DHT22;59091;47.446;19.148;2023-05-10T07:36:42;20.29;45.46
71304;DHT22;59091;47.446;19.148;2023-05-10T07:39:08;20.50;44.74
71304;DHT22;59091;47.446;19.148;2023-05-10T07:41:33;19.83;47.12
71304;DHT22;59091;47.446;19.148;2023-05-10T07:43:59;20.00;49.09
71304;DHT22;59091;47.446;19.148;2023-05-10T07:46:24;20.00;48.08
71304;DHT22;59091;47.446;19.148;2023-05-10T07:48:50;19.79;49.05
71304;DHT22;59091;47.446;19.148;2023-05-10T07:51:15;20.90;46.74
71304;DHT22;59091;47.446;19.148;2023-05-10T07:53:40;21.32;44.20
71304;DHT22;59091;47.446;19.148;2023-05-10T07:56:29;21.76;42.46
71304;DHT22;59091;47.446;19.148;2023-05-10T07:58:58;21.85;44.13
71304;DHT22;59091;47.446;19.148;2023-05-10T08:01:24;21.56;47.62
71304;DHT22;59091;47.446;19.148;2023-05-10T08:03:50;21.69;42.59
71304;DHT22;59091;47.446;19.148;2023-05-10T08:06:20;22.16;41.85
71304;DHT22;59091;47.446;19.148;2023-05-10T08:08:46;21.86;41.73
71304;DHT22;59091;47.446;19.148;2023-05-10T08:11:17;22.44;40.01
71304;DHT22;59091;47.446;19.148;2023-05-10T08:13:44;21.69;41.76
71304;DHT22;59091;47.446;19.148;2023-05-10T08:16:10;20.74;42.94
71304;DHT22;59091;47.446;19.148;2023-05-10T08:18:35;20.84;44.27
71304;DHT22;59091;47.446;19.148;2023-05-10T08:21:01;20.69;43.96
71304;DHT22;59091;47.446;19.148;2023-05-10T08:23:26;21.38;42.76
71304;DHT22;59091;47.446;19.148;2023-05-10T08:25:51;21.32;42.43
71304;DHT22;59091;47.446;19.148;2023-05-10T08:28:17;21.35;41.68
71304;DHT22;59091;47.446;19.148;2023-05-10T08:30:42;21.52;42.78
71304;DHT22;59091;47.446;19.148;2023-05-10T08:33:08;21.45;42.62
71304;DHT22;59091;47.446;19.148;2023-05-10T08:35:33;21.70;41.45
71304;DHT22;59091;47.446;19.148;2023-05-10T08:38:00;21.92;43.17
71304;DHT22;59091;47.446;19.148;2023-05-10T08:40:26;22.29;42.57
71304;DHT22;59091;47.446;19.148;2023-05-10T08:42:57;22.57;39.48
71304;DHT22;59091;47.446;19.148;2023-05-10T08:45:24;23.02;39.54
71304;DHT22;59091;47.446;19.148;2023-05-10T08:47:52;22.94;40.62
71304;DHT22;59091;47.446;19.148;2023-05-10T08:50:20;22.98;39.52
71304;DHT22;59091;47.446;19.148;2023-05-10T08:52:47;22.81;39.17
71304;DHT22;59091;47.446;19.148;2023-05-10T08:55:15;22.44;39.60
71304;DHT22;59091;47.446;19.148;2023-05-10T08:57:41;22.18;40.16
71304;DHT22;59091;47.446;19.148;2023-05-10T09:00:07;22.37;41.35
71304;DHT22;59091;47.446;19.148;2023-05-10T09:02:33;22.55;39.77
71304;DHT22;59091;47.446;19.148;2023-05-10T09:04:59;21.83;42.70
71304;DHT22;59091;47.446;19.148;2023-05-10T09:07:25;21.63;43.12
71304;DHT22;59091;47.446;19.148;2023-05-10T09:09:51;20.83;42.40
71304;DHT22;59091;47.446;19.148;2023-05-10T09:12:17;20.64;43.47
71304;DHT22;59091;47.446;19.148;2023-05-10T09:14:44;20.50;43.43
71304;DHT22;59091;47.446;19.148;2023-05-10T09:17:10;20.32;43.75
71304;DHT22;59091;47.446;19.148;2023-05-10T09:19:35;20.53;43.92
71304;DHT22;59091;47.446;19.148;2023-05-10T09:22:01;20.84;45.48
71304;DHT22;59091;47.446;19.148;2023-05-10T09:24:29;21.21;42.47
71304;DHT22;59091;47.446;19.148;2023-05-10T09:26:57;21.46;42.51
71304;DHT22;59091;47.446;19.148;2023-05-10T09:29:23;20.74;44.05
71304;DHT22;59091;47.446;19.148;2023-05-10T09:31:50;20.74;43.93
71304;DHT22;59091;47.446;19.148;2023-05-10T09:34:18;20.69;43.04
71304;DHT22;59091;47.446;19.148;2023-05-10T09:36:54;20.83;43.87
71304;DHT22;59091;47.446;19.148;2023-05-10T09:39:20;21.17;48.89
71304;DHT22;59091;47.446;19.148;2023-05-10T09:41:46;21.32;46.33
71304;DHT22;59091;47.446;19.148;2023-05-10T09:44:16;21.65;42.57
71304;DHT22;59091;47.446;19.148;2023-05-10T09:46:43;21.20;41.33
71304;DHT22;59091;47.446;19.148;2023-05-10T09:49:09;20.83;43.64
71304;DHT22;59091;47.446;19.148;2023-05-10T09:51:39;20.94;42.17
71304;DHT22;59091;47.446;19.148;2023-05-10T09:56:38;21.20;44.91
71304;DHT22;59091;47.446;19.148;2023-05-10T09:59:06;21.00;42.85
71304;DHT22;59091;47.446;19.148;2023-05-10T10:01:33;21.04;45.50
71304;DHT22;59091;47.446;19.148;2023-05-10T10:03:58;20.29;42.40
71304;DHT22;59091;47.446;19.148;2023-05-10T10:06:24;20.39;43.84
71304;DHT22;59091;47.446;19.148;2023-05-10T10:08:51;20.67;41.96
71304;DHT22;59091;47.446;19.148;2023-05-10T10:11:16;20.81;43.52
71304;DHT22;59091;47.446;19.148;2023-05-10T10:13:42;21.17;44.83
71304;DHT22;59091;47.446;19.148;2023-05-10T10:16:08;21.41;41.14
71304;DHT22;59091;47.446;19.148;2023-05-10T10:18:36;21.24;42.39
71304;DHT22;59091;47.446;19.148;2023-05-10T10:21:05;21.25;40.66
71304;DHT22;59091;47.446;19.148;2023-05-10T10:23:31;21.00;41.35
71304;DHT22;59091;47.446;19.148;2023-05-10T10:25:56;21.32;41.40
71304;DHT22;59091;47.446;19.148;2023-05-10T10:28:29;21.42;39.77
71304;DHT22;59091;47.446;19.148;2023-05-10T10:31:02;21.28;42.12
71304;DHT22;59091;47.446;19.148;2023-05-10T10:33:57;21.27;42.92
71304;DHT22;59091;47.446;19.148;2023-05-10T10:36:24;21.78;41.90
71304;DHT22;59091;47.446;19.148;2023-05-10T10:38:55;21.92;41.18
71304;DHT22;59091;47.446;19.148;2023-05-10T10:50:04;22.29;39.83
71304;DHT22;59091;47.446;19.148;2023-05-10T10:52:34;22.31;40.87
71304;DHT22;59091;47.446;19.148;2023-05-10T10:55:17;21.99;40.31
71304;DHT22;59091;47.446;19.148;2023-05-10T10:57:50;22.27;43.76
71304;DHT22;59091;47.446;19.148;2023-05-10T11:03:12;21.75;42.78
71304;DHT22;59091;47.446;19.148;2023-05-10T11:05:44;21.78;39.39
71304;DHT22;59091;47.446;19.148;2023-05-10T11:08:27;21.62;41.16
71304;DHT22;59091;47.446;19.148;2023-05-10T11:16:20;22.14;39.14
71304;DHT22;59091;47.446;19.148;2023-05-10T11:18:54;22.16;38.73
71304;DHT22;59091;47.446;19.148;2023-05-10T11:21:21;22.45;39.00
71304;DHT22;59091;47.446;19.148;2023-05-10T11:26:13;22.03;36.93
71304;DHT22;59091;47.446;19.148;2023-05-10T11:28:43;21.92;41.35
71304;DHT22;59091;47.446;19.148;2023-05-10T11:31:08;22.31;41.10
71304;DHT22;59091;47.446;19.148;2023-05-10T11:33:44;21.90;39.01
71304;DHT22;59091;47.446;19.148;2023-05-10T11:36:18;21.93;39.58
71304;DHT22;59091;47.446;19.148;2023-05-10T11:38:44;22.07;41.58
71304;DHT22;59091;47.446;19.148;2023-05-10T11:41:11;21.99;40.30
71304;DHT22;59091;47.446;19.148;2023-05-10T11:43:39;21.93;38.50
71304;DHT22;59091;47.446;19.148;2023-05-10T11:46:06;22.10;39.39
71304;DHT22;59091;47.446;19.148;2023-05-10T11:48:31;22.41;38.18
71304;DHT22;59091;47.446;19.148;2023-05-10T11:50:57;22.54;40.33
71304;DHT22;59091;47.446;19.148;2023-05-10T11:53:25;22.10;37.64
71304;DHT22;59091;47.446;19.148;2023-05-10T11:55:51;22.00;36.26
71304;DHT22;59091;47.446;19.148;2023-05-10T11:58:18;21.78;37.51
71304;DHT22;59091;47.446;19.148;2023-05-10T12:00:43;21.83;41.05
71304;DHT22;59091;47.446;19.148;2023-05-10T12:03:09;22.10;38.67
71304;DHT22;59091;47.446;19.148;2023-05-10T12:05:35;22.09;40.00
71304;DHT22;59091;47.446;19.148;2023-05-10T12:08:14;21.94;37.20
71304;DHT22;59091;47.446;19.148;2023-05-10T12:10:40;22.14;37.63
71304;DHT22;59091;47.446;19.148;2023-05-10T12:13:10;22.03;36.13
71304;DHT22;59091;47.446;19.148;2023-05-10T12:15:36;22.29;36.14
71304;DHT22;59091;47.446;19.148;2023-05-10T12:18:02;22.06;36.98
71304;DHT22;59091;47.446;19.148;2023-05-10T12:20:28;22.09;36.83
71304;DHT22;59091;47.446;19.148;2023-05-10T12:22:55;22.00;36.99
71304;DHT22;59091;47.446;19.148;2023-05-10T12:25:22;21.86;41.00
71304;DHT22;59091;47.446;19.148;2023-05-10T12:27:53;21.51;38.52
71304;DHT22;59091;47.446;19.148;2023-05-10T12:30:25;21.37;41.06
71304;DHT22;59091;47.446;19.148;2023-05-10T12:32:52;21.22;38.29
71304;DHT22;59091;47.446;19.148;2023-05-10T12:35:18;21.28;38.00
71304;DHT22;59091;47.446;19.148;2023-05-10T12:37:48;21.00;38.98
71304;DHT22;59091;47.446;19.148;2023-05-10T12:40:14;20.97;38.75
71304;DHT22;59091;47.446;19.148;2023-05-10T12:42:40;21.15;38.54
71304;DHT22;59091;47.446;19.148;2023-05-10T12:45:06;21.35;38.83
71304;DHT22;59091;47.446;19.148;2023-05-10T12:47:33;21.43;38.76
71304;DHT22;59091;47.446;19.148;2023-05-10T12:50:00;21.69;36.80
71304;DHT22;59091;47.446;19.148;2023-05-10T12:52:26;21.85;36.92
71304;DHT22;59091;47.446;19.148;2023-05-10T12:54:53;21.62;36.67
71304;DHT22;59091;47.446;19.148;2023-05-10T12:57:20;21.38;38.19
71304;DHT22;59091;47.446;19.148;2023-05-10T12:59:45;21.43;38.02
71304;DHT22;59091;47.446;19.148;2023-05-10T13:02:11;21.37;37.15
71304;DHT22;59091;47.446;19.148;2023-05-10T13:04:36;21.48;37.54
71304;DHT22;59091;47.446;19.148;2023-05-10T13:07:08;21.41;37.44
71304;DHT22;59091;47.446;19.148;2023-05-10T13:09:34;21.52;37.60
71304;DHT22;59091;47.446;19.148;2023-05-10T13:11:59;21.58;36.42
71304;DHT22;59091;47.446;19.148;2023-05-10T13:14:25;21.51;36.21
71304;DHT22;59091;47.446;19.148;2023-05-10T13:16:51;21.94;36.28
71304;DHT22;59091;47.446;19.148;2023-05-10T13:19:17;22.17;35.24
71304;DHT22;59091;47.446;19.148;2023-05-10T13:21:43;22.30;35.44
71304;DHT22;59091;47.446;19.148;2023-05-10T13:24:10;22.30;35.68
71304;DHT22;59091;47.446;19.148;2023-05-10T13:26:36;22.54;35.28
71304;DHT22;59091;47.446;19.148;2023-05-10T13:29:02;22.29;35.11
71304;DHT22;59091;47.446;19.148;2023-05-10T13:31:28;22.30;34.49
71304;DHT22;59091;47.446;19.148;2023-05-10T13:33:54;22.41;33.88
71304;DHT22;59091;47.446;19.148;2023-05-10T13:36:19;22.88;35.25
71304;DHT22;59091;47.446;19.148;2023-05-10T13:38:45;23.11;34.05
71304;DHT22;59091;47.446;19.148;2023-05-10T13:41:10;23.26;33.72
71304;DHT22;59091;47.446;19.148;2023-05-10T13:43:36;23.49;33.25
71304;DHT22;59091;47.446;19.148;2023-05-10T13:46:01;23.85;33.15
71304;DHT22;59091;47.446;19.148;2023-05-10T13:48:28;24.35;33.28
71304;DHT22;59091;47.446;19.148;2023-05-10T13:50:53;24.07;32.62
71304;DHT22;59091;47.446;19.148;2023-05-10T13:53:19;24.04;31.23
71304;DHT22;59091;47.446;19.148;2023-05-10T13:55:44;24.01;31.00
71304;DHT22;59091;47.446;19.148;2023-05-10T13:58:10;23.98;31.34
71304;DHT22;59091;47.446;19.148;2023-05-10T14:00:35;24.00;31.12
71304;DHT22;59091;47.446;19.148;2023-05-10T14:03:01;24.20;31.67
71304;DHT22;59091;47.446;19.148;2023-05-10T14:05:26;24.54;30.94
71304;DHT22;59091;47.446;19.148;2023-05-10T14:07:52;24.08;30.37
71304;DHT22;59091;47.446;19.148;2023-05-10T14:10:17;23.60;30.57
71304;DHT22;59091;47.446;19.148;2023-05-10T14:12:42;22.88;31.60
71304;DHT22;59091;47.446;19.148;2023-05-10T14:15:08;22.51;32.94
71304;DHT22;59091;47.446;19.148;2023-05-10T14:17:36;21.82;34.03
71304;DHT22;59091;47.446;19.148;2023-05-10T14:20:01;21.93;35.33
71304;DHT22;59091;47.446;19.148;2023-05-10T14:22:27;22.29;34.66
71304;DHT22;59091;47.446;19.148;2023-05-10T14:24:53;22.36;34.82
71304;DHT22;59091;47.446;19.148;2023-05-10T14:27:18;22.25;34.46
71304;DHT22;59091;47.446;19.148;2023-05-10T14:29:44;22.23;36.11
71304;DHT22;59091;47.446;19.148;2023-05-10T14:32:10;22.17;39.59
71304;DHT22;59091;47.446;19.148;2023-05-10T14:34:35;22.10;33.63
71304;DHT22;59091;47.446;19.148;2023-05-10T14:37:01;21.94;35.50
71304;DHT22;59091;47.446;19.148;2023-05-10T14:39:26;21.94;36.62
71304;DHT22;59091;47.446;19.148;2023-05-10T14:41:54;21.65;33.89
71304;DHT22;59091;47.446;19.148;2023-05-10T14:44:20;21.73;37.98
71304;DHT22;59091;47.446;19.148;2023-05-10T14:46:45;21.89;35.67
71304;DHT22;59091;47.446;19.148;2023-05-10T14:49:11;21.58;34.73
71304;DHT22;59091;47.446;19.148;2023-05-10T14:51:36;21.37;36.11
71304;DHT22;59091;47.446;19.148;2023-05-10T14:54:02;21.37;38.09
71304;DHT22;59091;47.446;19.148;2023-05-10T14:56:28;21.20;35.76
71304;DHT22;59091;47.446;19.148;2023-05-10T14:58:53;21.08;36.20
71304;DHT22;59091;47.446;19.148;2023-05-10T15:01:19;21.39;35.91
71304;DHT22;59091;47.446;19.148;2023-05-10T15:03:44;21.35;35.16
71304;DHT22;59091;47.446;19.148;2023-05-10T15:06:09;21.43;34.86
71304;DHT22;59091;47.446;19.148;2023-05-10T15:08:35;21.28;34.83
71304;DHT22;59091;47.446;19.148;2023-05-10T15:11:01;21.24;35.09
71304;DHT22;59091;47.446;19.148;2023-05-10T15:13:26;21.31;37.04
71304;DHT22;59091;47.446;19.148;2023-05-10T15:15:52;21.42;35.91
71304;DHT22;59091;47.446;19.148;2023-05-10T15:18:17;21.10;37.12
71304;DHT22;59091;47.446;19.148;2023-05-10T15:20:43;21.04;37.40
71304;DHT22;59091;47.446;19.148;2023-05-10T15:23:08;20.80;35.62
71304;DHT22;59091;47.446;19.148;2023-05-10T15:25:33;20.73;37.44
71304;DHT22;59091;47.446;19.148;2023-05-10T15:28:03;20.87;34.36
71304;DHT22;59091;47.446;19.148;2023-05-10T15:30:28;20.71;34.97
71304;DHT22;59091;47.446;19.148;2023-05-10T15:32:54;20.97;36.65
71304;DHT22;59091;47.446;19.148;2023-05-10T15:35:20;20.97;34.95
71304;DHT22;59091;47.446;19.148;2023-05-10T15:37:47;20.94;35.67
71304;DHT22;59091;47.446;19.148;2023-05-10T15:40:13;21.04;34.98
71304;DHT22;59091;47.446;19.148;2023-05-10T15:42:38;21.17;36.05
71304;DHT22;59091;47.446;19.148;2023-05-10T15:45:04;21.04;35.00
71304;DHT22;59091;47.446;19.148;2023-05-10T15:47:30;21.12;35.30
71304;DHT22;59091;47.446;19.148;2023-05-10T15:49:55;21.15;36.48